sensor_id;sensor_type;location;lat;lon;timestamp;P1;durP1;ratioP1;P2;durP2;ratioP2
75774;SDS011;64505;51.458;7.556;2022-10-22T00:00:31;15.38;;;4.43;;
75774;SDS011;64505;51.458;7.556;2022-10-22T00:02:33;8.95;;;3.88;;
75774;SDS011;64505;51.458;7.556;2022-10-22T00:04:36;12.80;;;4.45;;
75774;SDS011;64505;51.458;7.556;2022-10-22T00:06:39;11.48;;;3.83;;
75774;SDS011;64505;51.458;7.556;2022-10-22T00:08:42;8.73;;;4.35;;
75774;SDS011;64505;51.458;7.556;2022-10-22T00:10:47;12.35;;;3.72;;
75774;SDS011;64505;51.458;7.556;2022-10-22T00:12:49;7.90;;;3.40;;
75774;SDS011;64505;51.458;7.556;2022-10-22T00:14:52;14.60;;;5.78;;
75774;SDS011;64505;51.458;7.556;2022-10-22T00:16:55;9.23;;;3.38;;
75774;SDS011;64505;51.458;7.556;2022-10-22T00:19:01;8.25;;;4.30;;
75774;SDS011;64505;51.458;7.556;2022-10-22T00:21:04;10.02;;;4.57;;
75774;SDS011;64505;51.458;7.556;2022-10-22T00:23:07;12.48;;;4.60;;
75774;SDS011;64505;51.458;7.556;2022-10-22T00:25:10;10.68;;;4.50;;
75774;SDS011;64505;51.458;7.556;2022-10-22T00:27:14;13.00;;;4.55;;
75774;SDS011;64505;51.458;7.556;2022-10-22T00:29:17;13.38;;;4.90;;
75774;SDS011;64505;51.458;7.556;2022-10-22T00:31:20;14.48;;;5.00;;
75774;SDS011;64505;51.458;7.556;2022-10-22T00:33:22;11.43;;;4.50;;
75774;SDS011;64505;51.458;7.556;2022-10-22T00:35:25;13.43;;;4.47;;
75774;SDS011;64505;51.458;7.556;2022-10-22T00:37:28;12.43;;;4.97;;
75774;SDS011;64505;51.458;7.556;2022-10-22T00:39:31;12.38;;;5.28;;
75774;SDS011;64505;51.458;7.556;2022-10-22T00:41:34;9.68;;;4.05;;
75774;SDS011;64505;51.458;7.556;2022-10-22T00:45:56;16.48;;;4.70;;
75774;SDS011;64505;51.458;7.556;2022-10-22T00:48:00;11.48;;;3.92;;
75774;SDS011;64505;51.458;7.556;2022-10-22T00:52:12;13.38;;;5.03;;
75774;SDS011;64505;51.458;7.556;2022-10-22T00:54:15;11.27;;;4.35;;
75774;SDS011;64505;51.458;7.556;2022-10-22T00:56:18;11.38;;;4.43;;
75774;SDS011;64505;51.458;7.556;2022-10-22T00:58:22;9.32;;;4.82;;
75774;SDS011;64505;51.458;7.556;2022-10-22T01:00:28;17.15;;;6.53;;
75774;SDS011;64505;51.458;7.556;2022-10-22T01:02:31;8.05;;;4.45;;
75774;SDS011;64505;51.458;7.556;2022-10-22T01:04:34;20.52;;;6.30;;
75774;SDS011;64505;51.458;7.556;2022-10-22T01:06:36;19.98;;;6.00;;
75774;SDS011;64505;51.458;7.556;2022-10-22T01:08:40;13.32;;;6.05;;
75774;SDS011;64505;51.458;7.556;2022-10-22T01:10:51;13.32;;;5.82;;
75774;SDS011;64505;51.458;7.556;2022-10-22T01:13:00;9.48;;;4.35;;
75774;SDS011;64505;51.458;7.556;2022-10-22T01:15:17;9.68;;;4.30;;
75774;SDS011;64505;51.458;7.556;2022-10-22T01:17:29;19.65;;;6.07;;
75774;SDS011;64505;51.458;7.556;2022-10-22T01:19:39;9.98;;;4.65;;
75774;SDS011;64505;51.458;7.556;2022-10-22T01:21:52;11.68;;;4.43;;
75774;SDS011;64505;51.458;7.556;2022-10-22T01:24:16;8.73;;;4.70;;
75774;SDS011;64505;51.458;7.556;2022-10-22T01:26:32;10.63;;;4.22;;
75774;SDS011;64505;51.458;7.556;2022-10-22T01:28:48;12.57;;;5.68;;
75774;SDS011;64505;51.458;7.556;2022-10-22T01:33:02;11.48;;;4.10;;
75774;SDS011;64505;51.458;7.556;2022-10-22T01:35:08;12.48;;;5.82;;
75774;SDS011;64505;51.458;7.556;2022-10-22T01:37:13;10.00;;;4.18;;
75774;SDS011;64505;51.458;7.556;2022-10-22T01:39:20;9.63;;;5.85;;
75774;SDS011;64505;51.458;7.556;2022-10-22T01:45:41;12.25;;;5.65;;
75774;SDS011;64505;51.458;7.556;2022-10-22T01:47:47;11.93;;;5.70;;
75774;SDS011;64505;51.458;7.556;2022-10-22T01:50:02;14.43;;;4.88;;
75774;SDS011;64505;51.458;7.556;2022-10-22T01:52:18;9.35;;;4.63;;
75774;SDS011;64505;51.458;7.556;2022-10-22T01:54:30;12.25;;;6.03;;
75774;SDS011;64505;51.458;7.556;2022-10-22T01:56:44;12.23;;;5.55;;
75774;SDS011;64505;51.458;7.556;2022-10-22T01:59:01;12.13;;;4.43;;
75774;SDS011;64505;51.458;7.556;2022-10-22T02:01:12;11.95;;;5.97;;
75774;SDS011;64505;51.458;7.556;2022-10-22T02:03:23;9.80;;;5.28;;
75774;SDS011;64505;51.458;7.556;2022-10-22T02:05:31;11.27;;;4.28;;
75774;SDS011;64505;51.458;7.556;2022-10-22T02:07:39;8.95;;;4.82;;
75774;SDS011;64505;51.458;7.556;2022-10-22T02:09:45;6.85;;;4.47;;
75774;SDS011;64505;51.458;7.556;2022-10-22T02:11:49;13.43;;;6.05;;
75774;SDS011;64505;51.458;7.556;2022-10-22T02:13:53;16.63;;;7.10;;
75774;SDS011;64505;51.458;7.556;2022-10-22T02:15:59;9.55;;;5.18;;
75774;SDS011;64505;51.458;7.556;2022-10-22T02:18:05;11.15;;;5.20;;
75774;SDS011;64505;51.458;7.556;2022-10-22T02:20:11;13.43;;;4.82;;
75774;SDS011;64505;51.458;7.556;2022-10-22T02:22:19;10.43;;;4.50;;
75774;SDS011;64505;51.458;7.556;2022-10-22T02:24:22;10.13;;;4.90;;
75774;SDS011;64505;51.458;7.556;2022-10-22T02:26:27;12.27;;;5.25;;
75774;SDS011;64505;51.458;7.556;2022-10-22T02:28:35;15.40;;;6.68;;
75774;SDS011;64505;51.458;7.556;2022-10-22T02:30:41;12.10;;;5.80;;
75774;SDS011;64505;51.458;7.556;2022-10-22T02:32:49;16.35;;;7.03;;
75774;SDS011;64505;51.458;7.556;2022-10-22T02:34:57;13.02;;;5.97;;
75774;SDS011;64505;51.458;7.556;2022-10-22T02:37:01;13.38;;;5.90;;
75774;SDS011;64505;51.458;7.556;2022-10-22T02:39:05;16.40;;;7.13;;
75774;SDS011;64505;51.458;7.556;2022-10-22T02:41:11;17.55;;;5.65;;
75774;SDS011;64505;51.458;7.556;2022-10-22T02:43:13;13.85;;;5.20;;
75774;SDS011;64505;51.458;7.556;2022-10-22T02:45:16;21.98;;;6.55;;
75774;SDS011;64505;51.458;7.556;2022-10-22T02:47:20;19.42;;;7.93;;
75774;SDS011;64505;51.458;7.556;2022-10-22T02:49:23;13.50;;;6.00;;
75774;SDS011;64505;51.458;7.556;2022-10-22T02:51:27;20.88;;;8.23;;
75774;SDS011;64505;51.458;7.556;2022-10-22T02:53:29;16.67;;;7.93;;
75774;SDS011;64505;51.458;7.556;2022-10-22T02:55:32;12.60;;;5.32;;
75774;SDS011;64505;51.458;7.556;2022-10-22T02:57:34;21.17;;;7.70;;
75774;SDS011;64505;51.458;7.556;2022-10-22T02:59:38;19.27;;;6.70;;
75774;SDS011;64505;51.458;7.556;2022-10-22T03:01:40;14.18;;;6.47;;
75774;SDS011;64505;51.458;7.556;2022-10-22T03:03:43;19.92;;;6.95;;
75774;SDS011;64505;51.458;7.556;2022-10-22T03:05:46;22.63;;;8.18;;
75774;SDS011;64505;51.458;7.556;2022-10-22T03:07:50;17.17;;;5.72;;
75774;SDS011;64505;51.458;7.556;2022-10-22T03:09:52;21.23;;;7.00;;
75774;SDS011;64505;51.458;7.556;2022-10-22T03:11:55;17.17;;;8.85;;
75774;SDS011;64505;51.458;7.556;2022-10-22T03:13:57;16.85;;;7.18;;
75774;SDS011;64505;51.458;7.556;2022-10-22T03:16:00;20.40;;;8.02;;
75774;SDS011;64505;51.458;7.556;2022-10-22T03:18:03;18.55;;;8.63;;
75774;SDS011;64505;51.458;7.556;2022-10-22T03:20:06;24.15;;;8.77;;
75774;SDS011;64505;51.458;7.556;2022-10-22T03:22:10;23.20;;;6.43;;
75774;SDS011;64505;51.458;7.556;2022-10-22T03:24:18;12.77;;;7.28;;
75774;SDS011;64505;51.458;7.556;2022-10-22T03:26:25;17.52;;;8.77;;
75774;SDS011;64505;51.458;7.556;2022-10-22T03:28:28;13.95;;;5.72;;
75774;SDS011;64505;51.458;7.556;2022-10-22T03:30:30;20.52;;;9.07;;
75774;SDS011;64505;51.458;7.556;2022-10-22T03:32:33;21.60;;;8.80;;
75774;SDS011;64505;51.458;7.556;2022-10-22T03:34:36;13.68;;;6.25;;
75774;SDS011;64505;51.458;7.556;2022-10-22T03:36:38;11.70;;;6.03;;
75774;SDS011;64505;51.458;7.556;2022-10-22T03:38:42;23.25;;;7.10;;
75774;SDS011;64505;51.458;7.556;2022-10-22T03:40:46;16.95;;;7.20;;
75774;SDS011;64505;51.458;7.556;2022-10-22T03:42:49;16.50;;;8.43;;
75774;SDS011;64505;51.458;7.556;2022-10-22T03:44:52;17.65;;;8.10;;
75774;SDS011;64505;51.458;7.556;2022-10-22T03:46:54;14.57;;;6.75;;
75774;SDS011;64505;51.458;7.556;2022-10-22T03:49:02;16.70;;;6.53;;
75774;SDS011;64505;51.458;7.556;2022-10-22T03:51:05;16.35;;;7.45;;
75774;SDS011;64505;51.458;7.556;2022-10-22T03:53:08;15.93;;;7.97;;
75774;SDS011;64505;51.458;7.556;2022-10-22T03:55:11;14.77;;;6.47;;
75774;SDS011;64505;51.458;7.556;2022-10-22T03:57:15;22.73;;;9.90;;
75774;SDS011;64505;51.458;7.556;2022-10-22T03:59:18;13.18;;;8.60;;
75774;SDS011;64505;51.458;7.556;2022-10-22T04:01:21;19.85;;;7.80;;
75774;SDS011;64505;51.458;7.556;2022-10-22T04:03:23;18.58;;;8.65;;
75774;SDS011;64505;51.458;7.556;2022-10-22T04:05:26;15.95;;;7.53;;
75774;SDS011;64505;51.458;7.556;2022-10-22T04:07:29;18.08;;;8.73;;
75774;SDS011;64505;51.458;7.556;2022-10-22T04:09:32;12.57;;;7.47;;
75774;SDS011;64505;51.458;7.556;2022-10-22T04:11:35;16.48;;;8.27;;
75774;SDS011;64505;51.458;7.556;2022-10-22T04:13:39;22.92;;;7.68;;
75774;SDS011;64505;51.458;7.556;2022-10-22T04:15:42;18.23;;;8.50;;
75774;SDS011;64505;51.458;7.556;2022-10-22T04:17:49;23.92;;;10.23;;
75774;SDS011;64505;51.458;7.556;2022-10-22T04:19:52;22.73;;;9.77;;
75774;SDS011;64505;51.458;7.556;2022-10-22T04:21:56;19.55;;;9.82;;
75774;SDS011;64505;51.458;7.556;2022-10-22T04:23:59;18.83;;;9.52;;
75774;SDS011;64505;51.458;7.556;2022-10-22T04:26:02;18.25;;;9.32;;
75774;SDS011;64505;51.458;7.556;2022-10-22T04:28:07;21.98;;;10.07;;
75774;SDS011;64505;51.458;7.556;2022-10-22T04:30:12;14.43;;;8.85;;
75774;SDS011;64505;51.458;7.556;2022-10-22T04:32:15;17.00;;;8.90;;
75774;SDS011;64505;51.458;7.556;2022-10-22T04:34:18;20.50;;;10.77;;
75774;SDS011;64505;51.458;7.556;2022-10-22T04:36:20;21.67;;;10.80;;
75774;SDS011;64505;51.458;7.556;2022-10-22T04:38:23;22.17;;;10.68;;
75774;SDS011;64505;51.458;7.556;2022-10-22T04:40:26;20.60;;;11.65;;
75774;SDS011;64505;51.458;7.556;2022-10-22T04:42:28;18.98;;;10.68;;
75774;SDS011;64505;51.458;7.556;2022-10-22T04:44:31;21.55;;;11.68;;
75774;SDS011;64505;51.458;7.556;2022-10-22T04:46:35;21.75;;;11.15;;
75774;SDS011;64505;51.458;7.556;2022-10-22T04:48:39;22.05;;;11.82;;
75774;SDS011;64505;51.458;7.556;2022-10-22T04:50:42;23.58;;;12.02;;
75774;SDS011;64505;51.458;7.556;2022-10-22T04:52:45;24.25;;;11.75;;
75774;SDS011;64505;51.458;7.556;2022-10-22T04:54:48;16.98;;;10.77;;
75774;SDS011;64505;51.458;7.556;2022-10-22T04:56:50;20.98;;;11.55;;
75774;SDS011;64505;51.458;7.556;2022-10-22T04:58:53;19.50;;;11.70;;
75774;SDS011;64505;51.458;7.556;2022-10-22T05:00:57;32.03;;;13.68;;
75774;SDS011;64505;51.458;7.556;2022-10-22T05:03:02;23.45;;;12.52;;
75774;SDS011;64505;51.458;7.556;2022-10-22T05:05:04;23.10;;;12.18;;
75774;SDS011;64505;51.458;7.556;2022-10-22T05:07:07;28.27;;;12.32;;
75774;SDS011;64505;51.458;7.556;2022-10-22T05:09:11;20.10;;;11.20;;
75774;SDS011;64505;51.458;7.556;2022-10-22T05:11:16;23.23;;;12.40;;
75774;SDS011;64505;51.458;7.556;2022-10-22T05:13:20;25.38;;;12.85;;
75774;SDS011;64505;51.458;7.556;2022-10-22T05:15:23;22.73;;;12.88;;
75774;SDS011;64505;51.458;7.556;2022-10-22T05:17:25;23.88;;;11.55;;
75774;SDS011;64505;51.458;7.556;2022-10-22T05:19:30;23.35;;;12.10;;
75774;SDS011;64505;51.458;7.556;2022-10-22T05:21:33;22.58;;;11.95;;
75774;SDS011;64505;51.458;7.556;2022-10-22T05:23:36;27.95;;;13.30;;
75774;SDS011;64505;51.458;7.556;2022-10-22T05:25:39;21.92;;;10.93;;
75774;SDS011;64505;51.458;7.556;2022-10-22T05:27:42;22.75;;;11.15;;
75774;SDS011;64505;51.458;7.556;2022-10-22T05:29:45;31.48;;;12.82;;
75774;SDS011;64505;51.458;7.556;2022-10-22T05:31:47;21.52;;;12.85;;
75774;SDS011;64505;51.458;7.556;2022-10-22T05:33:50;29.40;;;12.13;;
75774;SDS011;64505;51.458;7.556;2022-10-22T05:35:54;26.58;;;12.05;;
75774;SDS011;64505;51.458;7.556;2022-10-22T05:37:57;28.58;;;12.18;;
75774;SDS011;64505;51.458;7.556;2022-10-22T05:40:00;26.85;;;13.50;;
75774;SDS011;64505;51.458;7.556;2022-10-22T05:42:22;30.70;;;13.00;;
75774;SDS011;64505;51.458;7.556;2022-10-22T05:44:25;24.10;;;12.80;;
75774;SDS011;64505;51.458;7.556;2022-10-22T05:46:28;25.02;;;12.57;;
75774;SDS011;64505;51.458;7.556;2022-10-22T05:48:34;23.00;;;11.63;;
75774;SDS011;64505;51.458;7.556;2022-10-22T05:50:37;27.10;;;12.50;;
75774;SDS011;64505;51.458;7.556;2022-10-22T05:52:41;22.60;;;11.60;;
75774;SDS011;64505;51.458;7.556;2022-10-22T05:54:44;25.50;;;12.73;;
75774;SDS011;64505;51.458;7.556;2022-10-22T05:56:47;23.90;;;12.15;;
75774;SDS011;64505;51.458;7.556;2022-10-22T05:58:50;25.13;;;12.15;;
75774;SDS011;64505;51.458;7.556;2022-10-22T06:00:53;22.30;;;12.23;;
75774;SDS011;64505;51.458;7.556;2022-10-22T06:02:55;24.98;;;13.52;;
75774;SDS011;64505;51.458;7.556;2022-10-22T06:04:58;27.90;;;12.93;;
75774;SDS011;64505;51.458;7.556;2022-10-22T06:07:01;21.08;;;12.68;;
75774;SDS011;64505;51.458;7.556;2022-10-22T06:09:06;28.02;;;13.68;;
75774;SDS011;64505;51.458;7.556;2022-10-22T06:11:15;20.15;;;11.65;;
75774;SDS011;64505;51.458;7.556;2022-10-22T06:13:18;21.95;;;11.63;;
75774;SDS011;64505;51.458;7.556;2022-10-22T06:15:21;26.15;;;13.32;;
75774;SDS011;64505;51.458;7.556;2022-10-22T06:17:23;25.98;;;13.05;;
75774;SDS011;64505;51.458;7.556;2022-10-22T06:19:26;26.60;;;13.65;;
75774;SDS011;64505;51.458;7.556;2022-10-22T06:21:31;21.48;;;11.48;;
75774;SDS011;64505;51.458;7.556;2022-10-22T06:23:34;23.73;;;11.70;;
75774;SDS011;64505;51.458;7.556;2022-10-22T06:25:39;25.20;;;11.80;;
75774;SDS011;64505;51.458;7.556;2022-10-22T06:27:41;29.50;;;14.15;;
75774;SDS011;64505;51.458;7.556;2022-10-22T06:29:44;29.63;;;14.55;;
75774;SDS011;64505;51.458;7.556;2022-10-22T06:31:47;26.35;;;13.15;;
75774;SDS011;64505;51.458;7.556;2022-10-22T06:33:49;35.88;;;15.50;;
75774;SDS011;64505;51.458;7.556;2022-10-22T06:35:52;23.70;;;13.50;;
75774;SDS011;64505;51.458;7.556;2022-10-22T06:37:55;23.40;;;12.45;;
75774;SDS011;64505;51.458;7.556;2022-10-22T06:39:57;28.50;;;11.60;;
75774;SDS011;64505;51.458;7.556;2022-10-22T06:42:01;27.13;;;13.70;;
75774;SDS011;64505;51.458;7.556;2022-10-22T06:44:04;25.08;;;12.73;;
75774;SDS011;64505;51.458;7.556;2022-10-22T06:46:08;23.92;;;13.43;;
75774;SDS011;64505;51.458;7.556;2022-10-22T06:48:16;23.27;;;13.00;;
75774;SDS011;64505;51.458;7.556;2022-10-22T06:50:18;24.17;;;13.82;;
75774;SDS011;64505;51.458;7.556;2022-10-22T06:52:21;26.00;;;12.85;;
75774;SDS011;64505;51.458;7.556;2022-10-22T06:54:24;20.90;;;12.43;;
75774;SDS011;64505;51.458;7.556;2022-10-22T06:56:27;20.08;;;10.68;;
75774;SDS011;64505;51.458;7.556;2022-10-22T06:58:31;21.65;;;11.30;;
75774;SDS011;64505;51.458;7.556;2022-10-22T07:00:34;20.92;;;11.98;;
75774;SDS011;64505;51.458;7.556;2022-10-22T07:02:36;19.80;;;12.15;;
75774;SDS011;64505;51.458;7.556;2022-10-22T07:04:40;19.73;;;11.45;;
75774;SDS011;64505;51.458;7.556;2022-10-22T07:06:43;18.10;;;11.00;;
75774;SDS011;64505;51.458;7.556;2022-10-22T07:08:46;18.17;;;10.75;;
75774;SDS011;64505;51.458;7.556;2022-10-22T07:10:49;15.57;;;9.23;;
75774;SDS011;64505;51.458;7.556;2022-10-22T07:12:51;22.77;;;11.68;;
75774;SDS011;64505;51.458;7.556;2022-10-22T07:14:55;18.45;;;10.27;;
75774;SDS011;64505;51.458;7.556;2022-10-22T07:16:58;18.25;;;9.93;;
75774;SDS011;64505;51.458;7.556;2022-10-22T07:19:01;14.40;;;8.88;;
75774;SDS011;64505;51.458;7.556;2022-10-22T07:21:05;14.68;;;8.88;;
75774;SDS011;64505;51.458;7.556;2022-10-22T07:23:08;14.43;;;9.00;;
75774;SDS011;64505;51.458;7.556;2022-10-22T07:25:11;14.82;;;9.02;;
75774;SDS011;64505;51.458;7.556;2022-10-22T07:27:14;16.92;;;8.50;;
75774;SDS011;64505;51.458;7.556;2022-10-22T07:29:16;15.48;;;7.85;;
75774;SDS011;64505;51.458;7.556;2022-10-22T07:31:20;14.32;;;8.07;;
75774;SDS011;64505;51.458;7.556;2022-10-22T07:33:24;12.27;;;6.40;;
75774;SDS011;64505;51.458;7.556;2022-10-22T07:35:27;13.10;;;6.78;;
75774;SDS011;64505;51.458;7.556;2022-10-22T07:37:29;11.27;;;6.43;;
75774;SDS011;64505;51.458;7.556;2022-10-22T07:39:32;10.73;;;6.40;;
75774;SDS011;64505;51.458;7.556;2022-10-22T07:41:34;15.13;;;6.60;;
75774;SDS011;64505;51.458;7.556;2022-10-22T07:43:37;10.88;;;7.03;;
75774;SDS011;64505;51.458;7.556;2022-10-22T07:45:40;10.35;;;5.55;;
75774;SDS011;64505;51.458;7.556;2022-10-22T07:47:45;12.63;;;5.30;;
75774;SDS011;64505;51.458;7.556;2022-10-22T07:49:48;8.60;;;5.60;;
75774;SDS011;64505;51.458;7.556;2022-10-22T07:51:51;14.10;;;6.28;;
75774;SDS011;64505;51.458;7.556;2022-10-22T07:53:53;9.88;;;6.25;;
75774;SDS011;64505;51.458;7.556;2022-10-22T07:55:56;11.57;;;5.90;;
75774;SDS011;64505;51.458;7.556;2022-10-22T08:00:14;12.13;;;5.78;;
75774;SDS011;64505;51.458;7.556;2022-10-22T08:02:23;9.05;;;4.97;;
75774;SDS011;64505;51.458;7.556;2022-10-22T08:04:27;9.68;;;5.05;;
75774;SDS011;64505;51.458;7.556;2022-10-22T08:06:30;11.80;;;6.03;;
75774;SDS011;64505;51.458;7.556;2022-10-22T08:08:33;12.48;;;5.50;;
75774;SDS011;64505;51.458;7.556;2022-10-22T08:10:35;14.88;;;5.95;;
75774;SDS011;64505;51.458;7.556;2022-10-22T08:12:38;11.93;;;4.75;;
75774;SDS011;64505;51.458;7.556;2022-10-22T08:14:42;8.73;;;4.25;;
75774;SDS011;64505;51.458;7.556;2022-10-22T08:16:45;9.93;;;3.58;;
75774;SDS011;64505;51.458;7.556;2022-10-22T08:18:48;9.63;;;4.25;;
75774;SDS011;64505;51.458;7.556;2022-10-22T08:20:53;9.20;;;3.53;;
75774;SDS011;64505;51.458;7.556;2022-10-22T08:22:56;10.60;;;4.00;;
75774;SDS011;64505;51.458;7.556;2022-10-22T08:24:59;9.68;;;3.45;;
75774;SDS011;64505;51.458;7.556;2022-10-22T08:27:02;8.77;;;2.88;;
75774;SDS011;64505;51.458;7.556;2022-10-22T08:29:05;10.02;;;3.28;;
75774;SDS011;64505;51.458;7.556;2022-10-22T08:31:08;6.05;;;2.65;;
75774;SDS011;64505;51.458;7.556;2022-10-22T08:33:11;8.43;;;2.47;;
75774;SDS011;64505;51.458;7.556;2022-10-22T08:35:14;7.82;;;3.15;;
75774;SDS011;64505;51.458;7.556;2022-10-22T08:37:19;10.02;;;3.05;;
75774;SDS011;64505;51.458;7.556;2022-10-22T08:39:22;6.57;;;2.35;;
75774;SDS011;64505;51.458;7.556;2022-10-22T08:41:24;10.75;;;3.22;;
75774;SDS011;64505;51.458;7.556;2022-10-22T08:43:32;7.18;;;2.70;;
75774;SDS011;64505;51.458;7.556;2022-10-22T08:45:47;8.25;;;3.20;;
75774;SDS011;64505;51.458;7.556;2022-10-22T08:48:02;8.32;;;3.03;;
75774;SDS011;64505;51.458;7.556;2022-10-22T08:50:22;6.65;;;2.85;;
75774;SDS011;64505;51.458;7.556;2022-10-22T08:52:32;8.43;;;2.75;;
75774;SDS011;64505;51.458;7.556;2022-10-22T08:54:40;6.97;;;2.38;;
75774;SDS011;64505;51.458;7.556;2022-10-22T08:56:53;9.68;;;2.30;;
75774;SDS011;64505;51.458;7.556;2022-10-22T08:59:08;6.97;;;2.10;;
75774;SDS011;64505;51.458;7.556;2022-10-22T09:01:16;8.93;;;3.03;;
75774;SDS011;64505;51.458;7.556;2022-10-22T09:03:26;10.90;;;2.30;;
75774;SDS011;64505;51.458;7.556;2022-10-22T09:05:38;6.13;;;2.25;;
75774;SDS011;64505;51.458;7.556;2022-10-22T09:07:49;7.25;;;2.38;;
75774;SDS011;64505;51.458;7.556;2022-10-22T09:09:53;7.35;;;2.05;;
75774;SDS011;64505;51.458;7.556;2022-10-22T09:11:59;6.10;;;2.00;;
75774;SDS011;64505;51.458;7.556;2022-10-22T09:14:03;8.88;;;2.25;;
75774;SDS011;64505;51.458;7.556;2022-10-22T09:16:10;11.18;;;2.55;;
75774;SDS011;64505;51.458;7.556;2022-10-22T09:18:20;6.57;;;2.17;;
75774;SDS011;64505;51.458;7.556;2022-10-22T09:20:35;8.35;;;2.58;;
75774;SDS011;64505;51.458;7.556;2022-10-22T09:22:45;14.70;;;2.78;;
75774;SDS011;64505;51.458;7.556;2022-10-22T09:25:09;8.93;;;2.20;;
75774;SDS011;64505;51.458;7.556;2022-10-22T09:27:18;7.18;;;2.40;;
75774;SDS011;64505;51.458;7.556;2022-10-22T09:29:24;7.72;;;2.20;;
75774;SDS011;64505;51.458;7.556;2022-10-22T09:31:33;8.63;;;2.40;;
75774;SDS011;64505;51.458;7.556;2022-10-22T09:33:36;7.90;;;2.38;;
75774;SDS011;64505;51.458;7.556;2022-10-22T09:35:43;7.43;;;2.50;;
75774;SDS011;64505;51.458;7.556;2022-10-22T09:37:48;9.45;;;2.53;;
75774;SDS011;64505;51.458;7.556;2022-10-22T09:39:54;7.38;;;2.50;;
75774;SDS011;64505;51.458;7.556;2022-10-22T09:41:59;9.02;;;3.67;;
75774;SDS011;64505;51.458;7.556;2022-10-22T09:44:02;9.18;;;2.92;;
75774;SDS011;64505;51.458;7.556;2022-10-22T09:46:13;8.98;;;2.58;;
75774;SDS011;64505;51.458;7.556;2022-10-22T09:48:19;8.77;;;2.85;;
75774;SDS011;64505;51.458;7.556;2022-10-22T09:50:27;7.95;;;2.33;;
75774;SDS011;64505;51.458;7.556;2022-10-22T09:52:31;7.90;;;2.90;;
75774;SDS011;64505;51.458;7.556;2022-10-22T09:54:39;9.73;;;3.40;;
75774;SDS011;64505;51.458;7.556;2022-10-22T09:56:48;11.65;;;2.47;;
75774;SDS011;64505;51.458;7.556;2022-10-22T09:58:54;7.22;;;2.85;;
75774;SDS011;64505;51.458;7.556;2022-10-22T10:00:58;7.60;;;3.08;;
75774;SDS011;64505;51.458;7.556;2022-10-22T10:03:02;15.20;;;2.95;;
75774;SDS011;64505;51.458;7.556;2022-10-22T10:05:05;7.95;;;3.40;;
75774;SDS011;64505;51.458;7.556;2022-10-22T10:07:16;10.25;;;3.60;;
75774;SDS011;64505;51.458;7.556;2022-10-22T10:09:21;9.38;;;2.95;;
75774;SDS011;64505;51.458;7.556;2022-10-22T10:11:26;8.23;;;2.65;;
75774;SDS011;64505;51.458;7.556;2022-10-22T10:13:37;7.13;;;2.67;;
75774;SDS011;64505;51.458;7.556;2022-10-22T10:15:49;5.97;;;2.28;;
75774;SDS011;64505;51.458;7.556;2022-10-22T10:17:59;8.68;;;3.15;;
75774;SDS011;64505;51.458;7.556;2022-10-22T10:20:16;8.57;;;2.55;;
75774;SDS011;64505;51.458;7.556;2022-10-22T10:22:35;7.00;;;2.28;;
75774;SDS011;64505;51.458;7.556;2022-10-22T10:24:50;8.80;;;2.45;;
75774;SDS011;64505;51.458;7.556;2022-10-22T10:27:06;7.63;;;2.63;;
75774;SDS011;64505;51.458;7.556;2022-10-22T10:29:20;8.73;;;2.35;;
75774;SDS011;64505;51.458;7.556;2022-10-22T10:31:37;10.38;;;2.92;;
75774;SDS011;64505;51.458;7.556;2022-10-22T10:33:48;10.98;;;2.58;;
75774;SDS011;64505;51.458;7.556;2022-10-22T10:35:57;8.25;;;2.67;;
75774;SDS011;64505;51.458;7.556;2022-10-22T10:38:09;8.30;;;2.40;;
75774;SDS011;64505;51.458;7.556;2022-10-22T10:40:24;11.73;;;2.42;;
75774;SDS011;64505;51.458;7.556;2022-10-22T10:42:31;10.55;;;2.55;;
75774;SDS011;64505;51.458;7.556;2022-10-22T10:44:45;5.78;;;2.28;;
75774;SDS011;64505;51.458;7.556;2022-10-22T10:46:54;8.30;;;2.00;;
75774;SDS011;64505;51.458;7.556;2022-10-22T10:49:06;9.00;;;2.08;;
75774;SDS011;64505;51.458;7.556;2022-10-22T10:51:14;11.43;;;2.63;;
75774;SDS011;64505;51.458;7.556;2022-10-22T10:53:30;9.15;;;2.65;;
75774;SDS011;64505;51.458;7.556;2022-10-22T10:55:45;6.78;;;2.13;;
75774;SDS011;64505;51.458;7.556;2022-10-22T10:57:57;6.35;;;2.78;;
75774;SDS011;64505;51.458;7.556;2022-10-22T11:00:13;8.45;;;2.40;;
75774;SDS011;64505;51.458;7.556;2022-10-22T11:02:29;7.22;;;2.17;;
75774;SDS011;64505;51.458;7.556;2022-10-22T11:04:49;5.55;;;1.70;;
75774;SDS011;64505;51.458;7.556;2022-10-22T11:07:05;5.65;;;2.47;;
75774;SDS011;64505;51.458;7.556;2022-10-22T11:09:34;8.07;;;2.03;;
75774;SDS011;64505;51.458;7.556;2022-10-22T11:11:42;7.70;;;2.35;;
75774;SDS011;64505;51.458;7.556;2022-10-22T11:13:49;6.10;;;2.17;;
75774;SDS011;64505;51.458;7.556;2022-10-22T11:15:59;8.05;;;2.35;;
75774;SDS011;64505;51.458;7.556;2022-10-22T11:18:11;7.78;;;1.95;;
75774;SDS011;64505;51.458;7.556;2022-10-22T11:20:17;8.52;;;2.35;;
75774;SDS011;64505;51.458;7.556;2022-10-22T11:22:24;6.45;;;2.08;;
75774;SDS011;64505;51.458;7.556;2022-10-22T11:24:31;6.55;;;1.23;;
75774;SDS011;64505;51.458;7.556;2022-10-22T11:26:41;5.70;;;1.58;;
75774;SDS011;64505;51.458;7.556;2022-10-22T11:28:48;7.50;;;1.85;;
75774;SDS011;64505;51.458;7.556;2022-10-22T11:30:56;9.48;;;1.92;;
75774;SDS011;64505;51.458;7.556;2022-10-22T11:33:04;7.38;;;2.28;;
75774;SDS011;64505;51.458;7.556;2022-10-22T11:35:11;6.70;;;2.17;;
75774;SDS011;64505;51.458;7.556;2022-10-22T11:37:17;5.50;;;2.15;;
75774;SDS011;64505;51.458;7.556;2022-10-22T11:39:28;6.70;;;1.60;;
75774;SDS011;64505;51.458;7.556;2022-10-22T11:41:34;6.07;;;1.60;;
75774;SDS011;64505;51.458;7.556;2022-10-22T11:43:50;6.20;;;1.88;;
75774;SDS011;64505;51.458;7.556;2022-10-22T11:46:07;6.57;;;1.92;;
75774;SDS011;64505;51.458;7.556;2022-10-22T11:48:27;3.83;;;1.55;;
75774;SDS011;64505;51.458;7.556;2022-10-22T11:50:44;4.50;;;1.45;;
75774;SDS011;64505;51.458;7.556;2022-10-22T11:52:57;5.47;;;1.40;;
75774;SDS011;64505;51.458;7.556;2022-10-22T11:55:09;4.75;;;1.38;;
75774;SDS011;64505;51.458;7.556;2022-10-22T11:57:34;3.80;;;1.50;;
75774;SDS011;64505;51.458;7.556;2022-10-22T11:59:41;5.50;;;1.45;;
75774;SDS011;64505;51.458;7.556;2022-10-22T12:01:54;5.68;;;1.65;;
75774;SDS011;64505;51.458;7.556;2022-10-22T12:04:17;6.88;;;1.50;;
75774;SDS011;64505;51.458;7.556;2022-10-22T12:06:22;4.63;;;1.38;;
75774;SDS011;64505;51.458;7.556;2022-10-22T12:08:26;7.13;;;1.88;;
75774;SDS011;64505;51.458;7.556;2022-10-22T12:10:33;7.35;;;1.98;;
75774;SDS011;64505;51.458;7.556;2022-10-22T12:12:51;9.35;;;1.75;;
75774;SDS011;64505;51.458;7.556;2022-10-22T12:14:58;7.65;;;1.63;;
75774;SDS011;64505;51.458;7.556;2022-10-22T12:17:07;6.32;;;1.40;;
75774;SDS011;64505;51.458;7.556;2022-10-22T12:19:14;4.80;;;1.42;;
75774;SDS011;64505;51.458;7.556;2022-10-22T12:21:18;6.47;;;1.40;;
75774;SDS011;64505;51.458;7.556;2022-10-22T12:23:23;5.90;;;1.45;;
75774;SDS011;64505;51.458;7.556;2022-10-22T12:25:30;8.00;;;1.40;;
75774;SDS011;64505;51.458;7.556;2022-10-22T12:27:36;6.57;;;1.40;;
75774;SDS011;64505;51.458;7.556;2022-10-22T12:29:41;5.13;;;1.40;;
75774;SDS011;64505;51.458;7.556;2022-10-22T12:31:44;5.63;;;1.33;;
75774;SDS011;64505;51.458;7.556;2022-10-22T12:33:55;3.90;;;1.25;;
75774;SDS011;64505;51.458;7.556;2022-10-22T12:35:58;4.65;;;1.40;;
75774;SDS011;64505;51.458;7.556;2022-10-22T12:38:09;3.22;;;1.13;;
75774;SDS011;64505;51.458;7.556;2022-10-22T12:40:17;6.82;;;1.52;;
75774;SDS011;64505;51.458;7.556;2022-10-22T12:42:21;7.85;;;1.50;;